Time;durP1;ratioP1;P1;durP2;ratioP2;P2;SDS_P1;SDS_P2;PMS_P1;PMS_P2;Temp;Humidity;BMP_temperature;BMP_pressure;BME280_temperature;BME280_humidity;BME280_pressure;Samples;Min_cycle;Max_cycle;Signal;HPM_P1;HPM_P2
2023/05/30 00:00:50;;;;;;;3.83;0.85;;;15.40;99.90;;;;;;5084976;28;20220;-90
2023/05/30 00:03:25;;;;;;;2.55;0.85;;;15.60;99.90;;;;;;5081044;28;20246;-90
2023/05/30 00:05:57;;;;;;;2.33;0.95;;;15.70;99.90;;;;;;5075154;28;20203;-89
2023/05/30 00:08:29;;;;;;;2.55;0.80;;;15.60;99.90;;;;;;5064290;28;20216;-89
2023/05/30 00:11:01;;;;;;;2.85;1.20;;;15.50;99.90;;;;;;5067431;28;20683;-89
2023/05/30 00:13:33;;;;;;;3.47;1.00;;;15.50;99.90;;;;;;5072224;28;20250;-89
2023/05/30 00:16:07;;;;;;;1.63;0.75;;;15.60;99.90;;;;;;5053153;28;20670;-87
2023/05/30 00:18:40;;;;;;;4.05;1.00;;;15.60;99.90;;;;;;5052908;28;20628;-88
2023/05/30 00:21:12;;;;;;;1.73;0.90;;;15.80;99.90;;;;;;5052188;28;20207;-88
2023/05/30 00:23:45;;;;;;;2.03;0.80;;;15.80;99.90;;;;;;5054105;28;20216;-88
2023/05/30 00:26:16;;;;;;;3.03;1.10;;;15.90;99.90;;;;;;5066577;28;20292;-88
2023/05/30 00:28:48;;;;;;;4.88;1.20;;;16.00;99.90;;;;;;5053860;28;20774;-88
2023/05/30 00:31:21;;;;;;;2.03;0.93;;;16.00;99.90;;;;;;5052972;28;20239;-88
2023/05/30 00:33:59;;;;;;;1.25;0.80;;;16.00;99.90;;;;;;5053068;28;20196;-89
2023/05/30 00:36:33;;;;;;;3.92;1.10;;;16.10;99.90;;;;;;5051186;28;20201;-86
2023/05/30 00:39:07;;;;;;;1.52;1.00;;;16.20;99.90;;;;;;5053543;28;20209;-89
2023/05/30 00:41:40;;;;;;;3.85;1.20;;;16.40;99.90;;;;;;5062431;28;20194;-89
2023/05/30 00:44:11;;;;;;;3.83;1.13;;;16.50;99.90;;;;;;5073886;28;20707;-89
2023/05/30 00:46:43;;;;;;;3.83;1.15;;;16.60;99.90;;;;;;5073075;28;20210;-89
2023/05/30 00:49:18;;;;;;;2.60;1.52;;;16.70;99.90;;;;;;5073194;28;20572;-88
2023/05/30 00:51:51;;;;;;;5.78;1.27;;;16.90;99.90;;;;;;5072761;28;20199;-89
2023/05/30 00:54:24;;;;;;;2.40;1.02;;;16.90;99.90;;;;;;5073083;28;20195;-85
2023/05/30 00:56:56;;;;;;;2.78;1.17;;;17.10;99.90;;;;;;5073739;28;20211;-89
2023/05/30 00:59:28;;;;;;;4.55;1.10;;;17.20;99.90;;;;;;5073823;28;20204;-89
2023/05/30 01:02:02;;;;;;;5.05;1.58;;;17.30;99.90;;;;;;5072481;28;20228;-89
2023/05/30 01:04:37;;;;;;;5.28;1.73;;;17.30;99.90;;;;;;5051119;28;20196;-89
2023/05/30 01:07:10;;;;;;;8.45;1.80;;;17.40;99.90;;;;;;5053135;28;20227;-90
2023/05/30 01:09:41;;;;;;;4.30;1.30;;;17.60;99.90;;;;;;5053129;28;20220;-90
2023/05/30 01:12:21;;;;;;;4.78;1.55;;;17.70;99.90;;;;;;5053086;28;20189;-87
2023/05/30 01:15:01;;;;;;;3.97;1.40;;;17.90;99.90;;;;;;5055818;28;20581;-89
2023/05/30 01:17:42;;;;;;;5.13;1.10;;;18.00;99.90;;;;;;5072147;28;20237;-89
2023/05/30 01:20:20;;;;;;;5.35;1.25;;;18.10;99.90;;;;;;5072239;28;20196;-88
2023/05/30 01:23:13;;;;;;;5.68;1.08;;;18.20;99.90;;;;;;5062552;28;20274;-88
2023/05/30 01:26:01;;;;;;;4.55;1.10;;;18.30;99.90;;;;;;5066830;28;20192;-88
2023/05/30 01:28:40;;;;;;;3.25;1.20;;;18.30;99.90;;;;;;5066905;28;20201;-87
2023/05/30 01:31:12;;;;;;;4.53;1.38;;;18.40;99.90;;;;;;5052210;28;20733;-87
2023/05/30 01:33:45;;;;;;;7.43;1.33;;;18.50;99.90;;;;;;5070795;28;20208;-86
2023/05/30 01:36:16;;;;;;;2.00;1.23;;;18.50;99.90;;;;;;5071902;28;20196;-85
2023/05/30 01:38:47;;;;;;;3.10;1.33;;;18.50;99.90;;;;;;5075268;28;20291;-83
2023/05/30 01:41:24;;;;;;;3.60;1.33;;;18.60;99.90;;;;;;5071278;28;20196;-85
2023/05/30 01:44:05;;;;;;;3.28;1.10;;;18.80;99.90;;;;;;5070876;28;20805;-86
2023/05/30 01:46:37;;;;;;;2.28;1.25;;;19.00;99.90;;;;;;5071411;28;20192;-87
2023/05/30 01:49:19;;;;;;;5.85;1.40;;;19.10;99.90;;;;;;5072800;28;20207;-82
2023/05/30 01:51:54;;;;;;;4.18;1.38;;;19.10;99.90;;;;;;5076975;28;20200;-84
2023/05/30 01:54:27;;;;;;;4.38;1.08;;;19.10;99.90;;;;;;5077414;28;20250;-84
2023/05/30 01:57:01;;;;;;;6.38;1.60;;;19.00;99.90;;;;;;5078031;28;20196;-83
2023/05/30 01:59:34;;;;;;;2.80;1.00;;;19.00;99.90;;;;;;5075596;28;20249;-85
2023/05/30 02:02:06;;;;;;;4.13;1.05;;;19.10;99.90;;;;;;5075449;28;20196;-86
2023/05/30 02:04:38;;;;;;;4.60;0.82;;;19.10;99.90;;;;;;5075351;28;20216;-86
2023/05/30 02:07:09;;;;;;;3.53;1.00;;;19.10;99.90;;;;;;5075023;28;20220;-86
2023/05/30 02:09:42;;;;;;;5.55;1.30;;;19.20;99.90;;;;;;5074233;28;20655;-85
2023/05/30 02:12:13;;;;;;;3.95;1.20;;;19.20;99.90;;;;;;5074714;28;20246;-86
2023/05/30 02:14:52;;;;;;;5.47;1.17;;;19.30;99.90;;;;;;5076361;28;20192;-87
2023/05/30 02:17:25;;;;;;;3.95;1.50;;;19.40;99.90;;;;;;5070263;28;20196;-87
2023/05/30 02:19:59;;;;;;;4.25;0.80;;;19.50;99.90;;;;;;5054852;28;20201;-86
2023/05/30 02:22:30;;;;;;;3.10;1.13;;;19.50;99.90;;;;;;5054947;28;20204;-88
2023/05/30 02:25:01;;;;;;;3.53;0.95;;;19.60;99.90;;;;;;5074815;28;20199;-87
2023/05/30 02:27:32;;;;;;;4.38;0.95;;;19.70;99.90;;;;;;5058458;28;20236;-85
2023/05/30 02:30:09;;;;;;;2.83;1.05;;;19.90;99.90;;;;;;5053494;28;20221;-85
2023/05/30 02:32:40;;;;;;;3.78;0.98;;;20.00;99.90;;;;;;5054093;28;20192;-84
2023/05/30 02:35:11;;;;;;;3.47;1.13;;;20.10;99.90;;;;;;5072239;28;20192;-85
2023/05/30 02:37:43;;;;;;;2.63;0.98;;;20.10;99.90;;;;;;5073633;28;20210;-87
2023/05/30 02:40:15;;;;;;;3.25;1.40;;;20.10;99.90;;;;;;5073438;28;20200;-86
2023/05/30 02:42:46;;;;;;;1.70;0.95;;;20.10;99.90;;;;;;5073654;28;20307;-87
2023/05/30 02:45:20;;;;;;;1.58;0.75;;;20.20;99.90;;;;;;5074529;28;20206;-87
2023/05/30 02:47:51;;;;;;;3.83;1.30;;;20.30;99.90;;;;;;5073472;28;20205;-87
2023/05/30 02:50:25;;;;;;;5.00;0.80;;;20.10;99.90;;;;;;5073805;28;20229;-87
2023/05/30 02:52:57;;;;;;;3.38;1.23;;;20.20;99.90;;;;;;5064007;28;20204;-86
2023/05/30 02:55:28;;;;;;;3.22;0.80;;;20.40;99.90;;;;;;5073542;28;20235;-87
2023/05/30 02:57:59;;;;;;;5.65;1.30;;;20.40;99.90;;;;;;5070111;28;20202;-88
2023/05/30 03:00:34;;;;;;;8.23;1.70;;;20.40;99.90;;;;;;5079388;28;20206;-89
2023/05/30 03:03:07;;;;;;;3.70;1.20;;;20.40;99.90;;;;;;5077954;28;20586;-89
2023/05/30 03:05:41;;;;;;;4.43;0.98;;;20.40;99.90;;;;;;5080069;28;20257;-89
2023/05/30 03:08:13;;;;;;;3.58;1.70;;;20.40;99.90;;;;;;5081818;28;20212;-88
2023/05/30 03:10:45;;;;;;;1.73;1.15;;;20.50;99.90;;;;;;5084704;28;20196;-89
2023/05/30 03:13:18;;;;;;;4.35;1.80;;;20.60;99.90;;;;;;5076811;28;20203;-90
2023/05/30 03:15:54;;;;;;;3.53;0.80;;;20.70;99.90;;;;;;5074298;28;20624;-89
2023/05/30 03:18:26;;;;;;;1.50;0.60;;;20.70;99.90;;;;;;5075381;28;20195;-90
2023/05/30 03:20:57;;;;;;;2.17;0.82;;;20.70;99.90;;;;;;5075074;28;20323;-89
2023/05/30 03:23:28;;;;;;;2.83;0.90;;;20.70;99.90;;;;;;5075225;28;20255;-90
2023/05/30 03:26:01;;;;;;;3.00;0.70;;;20.70;99.90;;;;;;5074743;28;20594;-90
2023/05/30 03:28:33;;;;;;;2.47;0.90;;;20.70;99.90;;;;;;5078384;28;20211;-89
2023/05/30 03:31:10;;;;;;;2.40;0.93;;;20.70;99.90;;;;;;5074889;28;20238;-89
2023/05/30 03:33:41;;;;;;;3.80;1.25;;;20.80;99.90;;;;;;5074940;28;20274;-90
2023/05/30 03:36:13;;;;;;;3.63;1.00;;;20.70;99.90;;;;;;5075654;28;20249;-90
2023/05/30 03:38:45;;;;;;;1.65;0.98;;;20.70;99.90;;;;;;5079092;28;20204;-89
2023/05/30 03:41:18;;;;;;;2.03;0.70;;;20.80;99.90;;;;;;5074182;28;20198;-89
2023/05/30 03:43:49;;;;;;;2.50;1.20;;;20.80;99.90;;;;;;5074132;28;20224;-90
2023/05/30 03:46:26;;;;;;;1.63;0.70;;;20.90;99.90;;;;;;5074050;28;20296;-89
2023/05/30 03:48:57;;;;;;;3.47;0.90;;;20.90;99.90;;;;;;5073975;28;20212;-90
2023/05/30 03:51:29;;;;;;;3.20;0.80;;;20.80;99.90;;;;;;5073944;28;20204;-89
2023/05/30 03:54:02;;;;;;;2.28;0.70;;;20.80;99.90;;;;;;5074521;28;20204;-90
2023/05/30 03:56:34;;;;;;;0.93;0.60;;;20.80;99.90;;;;;;5073360;28;20192;-90
2023/05/30 03:59:08;;;;;;;1.52;0.80;;;20.80;99.90;;;;;;5073370;28;20196;-90
2023/05/30 04:01:44;;;;;;;1.90;0.70;;;20.90;99.90;;;;;;5074380;28;20241;-90
2023/05/30 04:04:18;;;;;;;2.33;0.90;;;20.90;99.90;;;;;;5073885;28;20234;-89
2023/05/30 04:06:53;;;;;;;3.17;0.90;;;20.90;99.90;;;;;;5073716;28;20210;-90
2023/05/30 04:09:25;;;;;;;1.98;0.55;;;21.00;99.90;;;;;;5073468;28;20256;-90
2023/05/30 04:12:01;;;;;;;1.85;0.60;;;21.00;99.90;;;;;;5073929;28;20199;-89
2023/05/30 04:14:33;;;;;;;1.30;0.50;;;21.00;99.90;;;;;;5072647;28;20230;-89
2023/05/30 04:17:06;;;;;;;2.13;0.70;;;21.00;99.90;;;;;;5058095;28;20192;-89
2023/05/30 04:19:38;;;;;;;1.40;0.50;;;21.00;99.90;;;;;;5057732;28;20196;-89
2023/05/30 04:22:12;;;;;;;3.38;0.68;;;21.00;99.90;;;;;;5074008;28;20579;-89
2023/05/30 04:24:43;;;;;;;2.47;0.63;;;21.10;99.90;;;;;;5073072;28;20220;-90
2023/05/30 04:27:17;;;;;;;1.55;0.57;;;21.20;99.90;;;;;;5074646;28;20207;-89
2023/05/30 04:29:48;;;;;;;1.38;0.60;;;21.10;99.90;;;;;;5074761;28;20315;-89
2023/05/30 04:32:22;;;;;;;2.55;0.60;;;21.20;99.90;;;;;;5070039;28;20682;-90
2023/05/30 04:34:54;;;;;;;3.35;0.77;;;21.30;99.90;;;;;;5076064;28;20210;-89
2023/05/30 04:37:27;;;;;;;4.10;0.60;;;21.20;99.90;;;;;;5063317;28;20200;-89
2023/05/30 04:39:58;;;;;;;1.38;0.57;;;21.20;99.90;;;;;;5067448;28;20192;-89
2023/05/30 04:42:38;;;;;;;3.25;0.82;;;21.20;99.90;;;;;;5074435;28;20204;-89
2023/05/30 04:45:10;;;;;;;1.17;0.57;;;21.10;99.90;;;;;;5077585;28;20257;-91
2023/05/30 04:47:45;;;;;;;0.82;0.50;;;21.00;99.90;;;;;;5075236;28;20203;-90
2023/05/30 04:50:17;;;;;;;1.58;0.70;;;21.10;99.90;;;;;;5074957;28;20569;-89
2023/05/30 04:52:48;;;;;;;1.85;0.52;;;21.10;99.90;;;;;;5074045;28;20204;-89
2023/05/30 04:55:23;;;;;;;3.72;0.82;;;21.20;99.90;;;;;;5076015;28;20212;-89
2023/05/30 04:57:54;;;;;;;2.25;0.60;;;21.30;99.90;;;;;;5074067;28;20207;-89
2023/05/30 05:00:27;;;;;;;1.05;0.50;;;21.30;99.90;;;;;;5075782;28;20211;-89
2023/05/30 05:03:06;;;;;;;1.13;0.60;;;21.30;99.90;;;;;;5059639;28;20531;-89
2023/05/30 05:05:37;;;;;;;2.70;0.70;;;21.40;99.90;;;;;;5056921;28;20200;-89
2023/05/30 05:08:11;;;;;;;1.80;0.50;;;21.40;99.90;;;;;;5056627;28;20216;-89
2023/05/30 05:10:43;;;;;;;0.85;0.40;;;21.40;99.90;;;;;;5065855;28;20195;-89
2023/05/30 05:13:15;;;;;;;1.42;0.52;;;21.50;99.90;;;;;;5061384;28;20219;-89
2023/05/30 05:15:49;;;;;;;2.85;0.60;;;21.50;99.90;;;;;;5057083;28;20276;-90
2023/05/30 05:18:24;;;;;;;3.65;0.60;;;21.40;99.90;;;;;;5053723;28;20188;-89
2023/05/30 05:20:55;;;;;;;2.55;1.15;;;21.40;99.80;;;;;;5052570;28;20210;-90
2023/05/30 05:23:28;;;;;;;1.48;0.80;;;21.50;99.80;;;;;;5053444;28;20207;-90
2023/05/30 05:26:00;;;;;;;1.05;0.60;;;21.50;99.70;;;;;;5057705;28;20699;-90
2023/05/30 05:28:32;;;;;;;0.90;0.52;;;21.40;99.40;;;;;;5057049;28;20204;-90
2023/05/30 05:31:03;;;;;;;2.38;0.88;;;21.50;99.30;;;;;;5069827;28;20232;-89
2023/05/30 05:33:40;;;;;;;2.03;0.63;;;21.50;99.40;;;;;;5075838;28;20199;-90
2023/05/30 05:36:13;;;;;;;2.42;0.70;;;21.40;98.90;;;;;;5075248;28;20685;-89
2023/05/30 05:38:44;;;;;;;1.42;0.57;;;21.40;98.70;;;;;;5076270;28;20206;-89
2023/05/30 05:41:15;;;;;;;1.42;0.68;;;21.40;99.10;;;;;;5076088;28;20196;-89
2023/05/30 05:43:46;;;;;;;3.22;0.80;;;21.40;99.30;;;;;;5075727;28;20220;-90
2023/05/30 05:46:18;;;;;;;2.75;0.68;;;21.40;99.10;;;;;;5078719;28;20279;-89
2023/05/30 05:48:54;;;;;;;1.73;0.70;;;21.30;99.10;;;;;;5076809;28;20196;-90
2023/05/30 05:51:26;;;;;;;1.50;0.65;;;21.40;98.70;;;;;;5076990;28;20278;-90
2023/05/30 05:53:57;;;;;;;1.58;0.60;;;21.40;98.90;;;;;;5076430;28;20222;-90
2023/05/30 05:56:29;;;;;;;2.47;0.60;;;21.30;98.40;;;;;;5076297;28;20200;-90
2023/05/30 05:59:00;;;;;;;1.60;0.60;;;21.30;98.70;;;;;;5076208;28;20216;-90
2023/05/30 06:01:31;;;;;;;1.25;0.50;;;21.20;98.60;;;;;;5076364;28;20639;-89
2023/05/30 06:04:14;;;;;;;2.15;0.60;;;21.20;99.20;;;;;;5075369;28;20238;-88
2023/05/30 06:06:48;;;;;;;2.47;0.68;;;21.20;99.20;;;;;;5075321;28;20195;-89
2023/05/30 06:09:24;;;;;;;2.13;0.80;;;21.30;99.40;;;;;;5073783;28;20195;-89
2023/05/30 06:11:55;;;;;;;2.45;1.10;;;21.30;99.20;;;;;;5074421;28;20207;-89
2023/05/30 06:14:27;;;;;;;5.22;0.63;;;21.20;99.40;;;;;;5066271;28;20192;-88
2023/05/30 06:16:59;;;;;;;4.72;0.60;;;21.00;99.20;;;;;;5055350;28;20651;-89
2023/05/30 06:19:33;;;;;;;1.00;0.38;;;20.90;99.50;;;;;;5060400;28;20192;-88
2023/05/30 06:22:04;;;;;;;1.35;0.60;;;20.80;99.90;;;;;;5074955;28;20226;-89
2023/05/30 06:24:38;;;;;;;1.88;0.70;;;20.80;99.90;;;;;;5075505;28;20230;-88
2023/05/30 06:27:11;;;;;;;0.85;0.40;;;20.60;99.90;;;;;;5075249;28;20204;-89
2023/05/30 06:29:44;;;;;;;1.15;0.60;;;20.60;99.90;;;;;;5074963;28;20581;-89
2023/05/30 06:32:15;;;;;;;1.77;0.88;;;20.50;99.90;;;;;;5075195;28;20196;-89
2023/05/30 06:34:50;;;;;;;1.23;0.70;;;20.50;99.90;;;;;;5075785;28;20214;-89
2023/05/30 06:37:23;;;;;;;2.00;0.80;;;20.50;99.90;;;;;;5072880;28;20196;-89
2023/05/30 06:39:54;;;;;;;2.42;0.90;;;20.40;99.90;;;;;;5074845;28;20580;-87
2023/05/30 06:42:25;;;;;;;2.55;0.80;;;20.30;99.90;;;;;;5075662;28;20202;-89
2023/05/30 06:44:57;;;;;;;1.63;0.77;;;20.30;99.90;;;;;;5082031;28;20227;-88
2023/05/30 06:47:29;;;;;;;1.20;1.00;;;20.20;99.90;;;;;;5085397;28;20686;-87
2023/05/30 06:50:04;;;;;;;2.13;0.80;;;20.10;99.90;;;;;;5082467;28;20353;-88
2023/05/30 06:52:37;;;;;;;2.22;0.80;;;20.10;99.90;;;;;;5079821;28;20195;-89
2023/05/30 06:55:11;;;;;;;1.45;0.73;;;20.00;99.90;;;;;;5076648;28;20667;-89
2023/05/30 06:57:43;;;;;;;2.13;1.05;;;20.00;99.90;;;;;;5075495;28;20522;-89
2023/05/30 07:00:16;;;;;;;1.88;0.95;;;20.00;99.90;;;;;;5075025;28;20203;-89
2023/05/30 07:02:48;;;;;;;1.58;0.80;;;19.90;99.90;;;;;;5075093;28;20200;-88
2023/05/30 07:05:22;;;;;;;4.28;1.20;;;19.80;99.90;;;;;;5075396;28;20219;-89
2023/05/30 07:07:57;;;;;;;4.07;1.30;;;19.80;99.90;;;;;;5076212;28;20214;-88
2023/05/30 07:10:30;;;;;;;4.68;1.38;;;19.70;99.90;;;;;;5078611;28;20208;-88
2023/05/30 07:13:02;;;;;;;5.47;1.90;;;19.70;99.90;;;;;;5078743;28;20226;-89
2023/05/30 07:15:33;;;;;;;3.55;1.30;;;19.60;99.90;;;;;;5077018;28;20200;-89
2023/05/30 07:18:06;;;;;;;2.60;1.13;;;19.60;99.90;;;;;;5075575;28;20214;-89
2023/05/30 07:20:39;;;;;;;2.40;1.02;;;19.40;99.90;;;;;;5075959;28;20192;-89
2023/05/30 07:23:11;;;;;;;2.38;1.20;;;19.40;99.90;;;;;;5076372;28;20200;-89
2023/05/30 07:25:44;;;;;;;3.05;1.65;;;19.40;99.90;;;;;;5077333;28;20606;-89
2023/05/30 07:28:20;;;;;;;3.75;1.55;;;19.30;99.90;;;;;;5066743;28;20197;-88
2023/05/30 07:30:53;;;;;;;3.00;0.90;;;19.30;99.90;;;;;;5073450;28;20318;-89
2023/05/30 07:33:25;;;;;;;4.45;1.50;;;19.30;99.90;;;;;;5073757;28;20621;-88
2023/05/30 07:35:59;;;;;;;3.65;1.77;;;19.30;99.90;;;;;;5074788;28;20196;-89
2023/05/30 07:38:31;;;;;;;3.58;1.92;;;19.30;99.90;;;;;;5074977;28;20203;-89
2023/05/30 07:41:03;;;;;;;3.15;1.60;;;19.30;99.90;;;;;;5075036;28;20509;-88
2023/05/30 07:43:34;;;;;;;3.60;1.55;;;19.20;99.90;;;;;;5074996;28;20204;-88
2023/05/30 07:46:08;;;;;;;3.17;1.50;;;19.20;99.90;;;;;;5073836;28;20231;-89
2023/05/30 07:48:41;;;;;;;3.17;1.58;;;19.20;99.90;;;;;;5073855;28;20203;-89
2023/05/30 07:51:14;;;;;;;2.17;1.60;;;19.20;99.90;;;;;;5074361;28;20663;-89
2023/05/30 07:53:46;;;;;;;5.07;2.08;;;19.20;99.90;;;;;;5073209;28;20574;-89
2023/05/30 07:56:17;;;;;;;6.18;2.20;;;19.10;99.90;;;;;;5074077;28;20198;-89
2023/05/30 07:58:49;;;;;;;2.33;1.48;;;19.00;99.90;;;;;;5074361;28;20203;-89
2023/05/30 08:01:21;;;;;;;3.45;1.73;;;19.00;99.90;;;;;;5088438;28;20328;-90
2023/05/30 08:03:53;;;;;;;4.15;1.60;;;18.90;99.90;;;;;;5096642;28;20218;-89
2023/05/30 08:06:28;;;;;;;2.03;1.48;;;19.00;99.90;;;;;;5096527;28;20258;-89
2023/05/30 08:08:59;;;;;;;2.67;1.80;;;19.00;99.90;;;;;;5096979;28;20198;-88
2023/05/30 08:11:32;;;;;;;3.17;1.75;;;19.00;99.90;;;;;;5094171;28;20196;-89
2023/05/30 08:14:04;;;;;;;4.38;2.25;;;18.90;99.90;;;;;;5090806;28;20199;-89
2023/05/30 08:16:35;;;;;;;8.57;2.78;;;18.90;99.90;;;;;;5089169;28;20234;-88
2023/05/30 08:19:07;;;;;;;11.02;3.72;;;18.80;99.90;;;;;;5090519;28;20233;-89
2023/05/30 08:21:43;;;;;;;7.75;2.90;;;18.90;99.90;;;;;;5089325;28;20200;-88
2023/05/30 08:24:15;;;;;;;4.93;2.70;;;18.90;99.90;;;;;;5088200;28;20207;-88
2023/05/30 08:26:48;;;;;;;4.15;2.22;;;18.80;99.90;;;;;;5093561;28;20267;-88
2023/05/30 08:29:19;;;;;;;3.65;2.22;;;18.70;99.90;;;;;;5079227;28;20261;-88
2023/05/30 08:31:52;;;;;;;5.53;3.00;;;18.70;99.90;;;;;;5078758;28;20346;-89
2023/05/30 08:34:24;;;;;;;5.03;2.50;;;18.70;99.90;;;;;;5078360;28;20253;-89
2023/05/30 08:37:00;;;;;;;7.28;3.10;;;18.60;99.90;;;;;;5074829;28;20309;-89
2023/05/30 08:39:34;;;;;;;3.72;2.50;;;18.50;99.90;;;;;;5073757;28;20618;-90
2023/05/30 08:42:07;;;;;;;5.50;2.03;;;18.50;99.90;;;;;;5074119;28;20236;-90
2023/05/30 08:44:43;;;;;;;6.50;2.03;;;18.50;99.90;;;;;;5073496;28;20229;-88
2023/05/30 08:47:19;;;;;;;8.77;2.85;;;18.40;99.90;;;;;;5075028;28;20205;-89
2023/05/30 08:49:55;;;;;;;4.15;1.88;;;18.40;99.90;;;;;;5074218;28;20199;-89
2023/05/30 08:52:34;;;;;;;3.13;2.03;;;18.40;99.90;;;;;;5064909;28;20185;-89
2023/05/30 08:55:12;;;;;;;8.18;2.22;;;18.40;99.90;;;;;;5066948;28;20208;-89
2023/05/30 08:57:53;;;;;;;6.40;2.72;;;18.30;99.90;;;;;;5074138;28;20203;-89
2023/05/30 09:00:25;;;;;;;4.60;2.20;;;18.20;99.90;;;;;;5078593;28;20573;-88
2023/05/30 09:02:58;;;;;;;8.82;3.00;;;18.20;99.90;;;;;;5079663;28;20202;-88
2023/05/30 09:05:31;;;;;;;6.55;3.08;;;18.10;99.90;;;;;;5062597;28;20224;-88
2023/05/30 09:08:07;;;;;;;4.88;2.80;;;18.00;99.90;;;;;;5057327;28;20706;-89
2023/05/30 09:10:41;;;;;;;6.00;3.33;;;18.00;99.90;;;;;;5058366;28;20207;-89
2023/05/30 09:13:14;;;;;;;7.55;2.70;;;18.00;99.90;;;;;;5062504;28;20653;-89
2023/05/30 09:15:45;;;;;;;5.30;2.97;;;18.00;99.90;;;;;;5058296;28;20193;-88
2023/05/30 09:18:18;;;;;;;9.00;3.13;;;18.00;99.90;;;;;;5066840;28;20235;-88
2023/05/30 09:20:51;;;;;;;6.85;3.45;;;17.90;99.90;;;;;;5077323;28;20204;-89
2023/05/30 09:23:27;;;;;;;5.13;2.60;;;17.90;99.90;;;;;;5077166;28;20200;-89
2023/05/30 09:26:01;;;;;;;4.22;2.40;;;17.90;99.90;;;;;;5076469;28;20225;-89
2023/05/30 09:28:32;;;;;;;7.53;2.80;;;17.80;99.90;;;;;;5077557;28;20659;-89
2023/05/30 09:31:05;;;;;;;4.90;3.00;;;17.70;99.90;;;;;;5062595;28;20232;-88
2023/05/30 09:33:47;;;;;;;6.72;3.85;;;17.80;99.90;;;;;;5058021;28;20211;-88
2023/05/30 09:36:24;;;;;;;4.72;2.95;;;17.70;99.90;;;;;;5056505;28;20196;-89
2023/05/30 09:39:11;;;;;;;9.73;3.83;;;17.70;99.90;;;;;;5056919;28;20663;-89
2023/05/30 09:41:47;;;;;;;5.88;3.70;;;17.60;99.90;;;;;;5055586;28;20200;-89
2023/05/30 09:44:23;;;;;;;6.07;2.75;;;17.60;99.90;;;;;;5064293;28;20253;-88
2023/05/30 09:47:00;;;;;;;6.05;2.53;;;17.60;99.90;;;;;;5074725;28;20227;-89
2023/05/30 09:49:34;;;;;;;5.20;2.95;;;17.60;99.90;;;;;;5076355;28;20207;-89
2023/05/30 09:52:07;;;;;;;6.32;2.83;;;17.50;99.90;;;;;;5076507;28;20215;-89
2023/05/30 09:54:42;;;;;;;4.18;2.13;;;17.40;99.90;;;;;;5076212;28;20219;-89
2023/05/30 09:57:14;;;;;;;4.85;2.58;;;17.50;99.90;;;;;;5076135;28;20199;-89
2023/05/30 09:59:50;;;;;;;4.13;2.17;;;17.40;99.90;;;;;;5076451;28;20198;-89
2023/05/30 10:02:33;;;;;;;7.57;5.10;;;17.40;99.90;;;;;;5084342;28;20233;-89
2023/05/30 10:05:07;;;;;;;6.80;3.35;;;17.40;99.90;;;;;;5085162;28;20230;-90
2023/05/30 10:07:40;;;;;;;5.65;3.08;;;17.30;99.90;;;;;;5090587;28;20228;-89
2023/05/30 10:10:21;;;;;;;7.15;2.90;;;17.30;99.90;;;;;;5082813;28;20200;-89
2023/05/30 10:12:54;;;;;;;4.28;2.20;;;17.20;99.90;;;;;;5081024;28;20199;-89
2023/05/30 10:15:28;;;;;;;3.83;2.08;;;17.20;99.90;;;;;;5083061;28;20204;-89
2023/05/30 10:18:07;;;;;;;5.13;2.50;;;17.20;99.90;;;;;;5079698;28;20248;-90
2023/05/30 10:20:40;;;;;;;4.97;2.30;;;17.20;99.90;;;;;;5079007;28;20546;-89
2023/05/30 10:23:17;;;;;;;4.35;2.63;;;17.10;99.90;;;;;;5078622;28;20192;-89
2023/05/30 10:25:54;;;;;;;4.93;2.15;;;17.10;99.90;;;;;;5077736;28;20302;-89
2023/05/30 10:28:30;;;;;;;5.03;2.40;;;17.10;99.90;;;;;;5077815;28;20281;-89
2023/05/30 10:31:03;;;;;;;4.35;1.92;;;17.10;99.90;;;;;;5076730;28;20223;-88
2023/05/30 10:33:39;;;;;;;3.60;1.90;;;17.10;99.90;;;;;;5079833;28;20207;-89
2023/05/30 10:36:12;;;;;;;3.35;2.22;;;17.00;99.90;;;;;;5077299;28;20203;-89
2023/05/30 10:38:50;;;;;;;4.80;2.03;;;17.00;99.90;;;;;;5086878;28;20192;-89
2023/05/30 10:41:33;;;;;;;4.80;1.85;;;17.00;99.90;;;;;;5089469;28;20230;-89
2023/05/30 10:44:16;;;;;;;4.72;2.45;;;17.00;99.90;;;;;;5082842;28;20202;-89
2023/05/30 10:47:02;;;;;;;8.05;2.90;;;17.00;99.90;;;;;;5078977;28;20292;-89
2023/05/30 10:49:35;;;;;;;6.45;2.40;;;17.00;99.90;;;;;;5079222;28;20659;-89
2023/05/30 10:52:08;;;;;;;3.47;1.70;;;16.90;99.90;;;;;;5078320;28;20207;-89
2023/05/30 10:54:41;;;;;;;3.80;1.70;;;16.80;99.90;;;;;;5077852;28;20196;-89
2023/05/30 10:57:31;;;;;;;3.85;1.58;;;16.80;99.90;;;;;;5079488;28;20667;-89
2023/05/30 11:02:57;;;;;;;2.60;1.50;;;16.80;99.90;;;;;;5090210;28;20183;-89
2023/05/30 11:05:35;;;;;;;3.40;1.70;;;16.80;99.90;;;;;;5094575;28;20232;-89
2023/05/30 11:08:06;;;;;;;4.50;1.70;;;16.80;99.90;;;;;;5081636;28;20215;-90
2023/05/30 11:10:39;;;;;;;2.58;1.92;;;16.70;99.90;;;;;;5079993;28;20204;-88
2023/05/30 11:13:17;;;;;;;5.22;2.35;;;16.70;99.90;;;;;;5082195;28;20195;-89
2023/05/30 11:15:50;;;;;;;5.95;1.92;;;16.60;99.90;;;;;;5080411;28;20203;-90
2023/05/30 11:18:25;;;;;;;3.75;1.92;;;16.60;99.90;;;;;;5077607;28;20200;-90
2023/05/30 11:20:57;;;;;;;3.85;1.88;;;16.60;99.90;;;;;;5077055;28;20203;-89
2023/05/30 11:23:29;;;;;;;3.38;1.85;;;16.60;99.90;;;;;;5078505;28;20190;-89
2023/05/30 11:26:04;;;;;;;5.72;2.10;;;16.60;99.90;;;;;;5073723;28;20220;-90
2023/05/30 11:28:45;;;;;;;4.13;1.85;;;16.50;99.90;;;;;;5075314;28;20213;-90
2023/05/30 11:31:20;;;;;;;4.53;2.03;;;16.50;99.90;;;;;;5076122;28;20315;-90
2023/05/30 11:33:56;;;;;;;5.30;2.30;;;16.60;99.90;;;;;;5076429;28;20203;-90
2023/05/30 11:36:27;;;;;;;6.13;2.10;;;16.50;99.90;;;;;;5075108;28;20200;-89
2023/05/30 11:39:05;;;;;;;6.38;2.30;;;16.50;99.90;;;;;;5075447;28;20266;-90
2023/05/30 11:41:39;;;;;;;4.45;2.13;;;16.40;99.90;;;;;;5074925;28;20238;-90
2023/05/30 11:44:16;;;;;;;6.63;2.42;;;16.30;99.90;;;;;;5075237;28;20196;-89
2023/05/30 11:47:03;;;;;;;6.10;2.78;;;16.30;99.90;;;;;;5075535;28;20215;-89
2023/05/30 11:49:37;;;;;;;6.03;2.65;;;16.30;99.90;;;;;;5074647;28;20573;-89
2023/05/30 11:52:12;;;;;;;5.65;3.00;;;16.20;99.90;;;;;;5073966;28;20191;-90
2023/05/30 11:54:43;;;;;;;4.55;2.40;;;16.20;99.90;;;;;;5074328;28;20207;-89
2023/05/30 11:57:17;;;;;;;6.85;2.30;;;16.10;99.90;;;;;;5074917;28;20210;-89
2023/05/30 11:59:56;;;;;;;5.50;2.50;;;16.00;99.90;;;;;;5074379;28;20211;-89
2023/05/30 12:02:32;;;;;;;3.95;2.22;;;15.90;99.90;;;;;;5074004;28;20204;-90
2023/05/30 12:05:08;;;;;;;5.93;2.30;;;15.90;99.90;;;;;;5073565;28;20278;-90
2023/05/30 12:07:42;;;;;;;5.00;2.20;;;16.00;99.90;;;;;;5074126;28;20227;-90
2023/05/30 12:10:16;;;;;;;2.65;1.90;;;16.00;99.90;;;;;;5075248;28;20191;-90
2023/05/30 12:12:49;;;;;;;3.10;2.10;;;16.00;99.90;;;;;;5074857;28;20632;-90
2023/05/30 12:15:24;;;;;;;5.72;2.80;;;16.00;99.90;;;;;;5073713;28;20196;-90
2023/05/30 12:17:56;;;;;;;4.72;2.63;;;16.00;99.90;;;;;;5072379;28;20207;-90
2023/05/30 12:20:28;;;;;;;3.47;2.10;;;16.00;99.90;;;;;;5074657;28;20207;-90
2023/05/30 12:23:09;;;;;;;5.50;2.17;;;15.90;99.90;;;;;;5074512;28;20200;-90
2023/05/30 12:25:42;;;;;;;4.32;2.10;;;15.90;99.90;;;;;;5073744;28;20222;-90
2023/05/30 12:28:17;;;;;;;4.10;1.98;;;15.90;99.90;;;;;;5074165;28;20203;-90
2023/05/30 12:30:53;;;;;;;7.43;2.28;;;15.90;99.90;;;;;;5073387;28;20231;-90
2023/05/30 12:33:27;;;;;;;5.25;2.00;;;15.90;99.90;;;;;;5074053;28;20192;-90
2023/05/30 12:36:04;;;;;;;3.95;2.30;;;15.80;99.90;;;;;;5073165;28;20214;-91
2023/05/30 12:38:36;;;;;;;3.17;1.77;;;15.90;99.90;;;;;;5074126;28;20184;-91
2023/05/30 12:41:09;;;;;;;4.32;2.45;;;15.90;99.90;;;;;;5073132;28;20665;-91
2023/05/30 12:43:42;;;;;;;5.07;2.17;;;15.90;99.90;;;;;;5073863;28;20222;-91
2023/05/30 12:46:17;;;;;;;5.00;2.30;;;15.90;99.90;;;;;;5073531;28;20234;-90
2023/05/30 12:48:48;;;;;;;3.33;2.20;;;15.80;99.90;;;;;;5074623;28;20260;-90
2023/05/30 12:51:23;;;;;;;3.88;2.33;;;15.70;99.90;;;;;;5074096;28;20206;-90
2023/05/30 12:53:56;;;;;;;5.15;2.45;;;15.70;99.90;;;;;;5069393;28;20287;-90
2023/05/30 12:56:28;;;;;;;4.90;2.40;;;15.60;99.90;;;;;;5054317;28;20219;-90
2023/05/30 12:59:01;;;;;;;4.95;2.42;;;15.50;99.90;;;;;;5054045;28;20197;-89
2023/05/30 13:01:35;;;;;;;4.32;2.60;;;15.50;99.90;;;;;;5053212;28;20196;-90
2023/05/30 13:04:08;;;;;;;4.47;2.78;;;15.50;99.90;;;;;;5053445;28;20241;-90
2023/05/30 13:06:39;;;;;;;3.25;2.10;;;15.40;99.90;;;;;;5054324;28;20224;-90
2023/05/30 13:09:10;;;;;;;2.97;1.88;;;15.50;99.90;;;;;;5059183;28;20207;-90
2023/05/30 13:11:42;;;;;;;4.85;2.20;;;15.40;99.90;;;;;;5071886;28;20206;-90
2023/05/30 13:14:13;;;;;;;3.60;2.10;;;15.40;99.90;;;;;;5072358;28;20209;-90
2023/05/30 13:16:49;;;;;;;5.45;2.30;;;15.30;99.90;;;;;;5072284;28;20200;-90
2023/05/30 13:19:21;;;;;;;3.25;2.20;;;15.30;99.90;;;;;;5072774;28;20198;-88
2023/05/30 13:21:53;;;;;;;3.08;2.10;;;15.30;99.90;;;;;;5068457;28;20212;-89
2023/05/30 13:24:25;;;;;;;2.40;1.92;;;15.20;99.90;;;;;;5061843;28;20196;-88